Terminal Aerodrome Forecast
Issued by NWS

Home | Current Version | Previous Version | Text Only | Print | Product List | Glossary On
Versions: 1 2 3 4 5 6 7 8 9 10 11 12
000
FTUS43 KAPX 241250 CCA
TAFTVC
TAF COR
KTVC 241250Z 2413/2512 21007KT P6SM SCT250
     FM241700 23011KT P6SM SCT250
     FM250200 23007KT P6SM VCTS BKN080CB
     FM250600 VRB03KT P6SM BKN150
     FM250900 VRB03KT P6SM SCT015=

USA.gov is the U.S. government's official web portal to all federal, state and local government web resources and services.